LYNI/INI METAR and TAF weather

Enter ICAO airport designator
Station Type Date Time Source
LYNI METAR 2024/02/26 18:30 UTC NOAA

LYNI 261830Z 13003KT 040V170 CAVOK 15/05 Q1011 NOSIG


Station Type Date Time Source
LYNI Decoded METAR 2024/02/26 18:30 UTC NOAA

Nis, Serbia and Montenegro (LYNI) 43-20N 021-54E 202M
Feb 26, 2024 - 01:30 PM EST / 2024.02.26 1830 UTC
Wind: from the SE (130 degrees) at 3 MPH (3 KT) (direction variable):0
Visibility: greater than 7 mile(s):0
Temperature: 59 F (15 C)
Dew Point: 41 F (5 C)
Relative Humidity: 51%
Pressure (altimeter): 29.85 in. Hg (1011 hPa)
ob: LYNI 261830Z 13003KT 040V170 CAVOK 15/05 Q1011 NOSIG
cycle: 18

Station Type Date Time Source
LYNI TAF 2024/02/26 18:25 UTC NOAA